createdAt,value
2019-03-04T00:01:06.441Z,2.45
2019-03-04T00:03:33.876Z,2.80
2019-03-04T00:06:01.262Z,2.55
2019-03-04T00:08:32.985Z,3.65
2019-03-04T00:11:00.508Z,2.12
2019-03-04T00:13:27.887Z,4.80
2019-03-04T00:15:55.325Z,2.70
2019-03-04T00:18:22.710Z,2.58
2019-03-04T00:20:50.343Z,2.35
2019-03-04T00:23:17.759Z,3.25
2019-03-04T00:25:45.214Z,6.15
2019-03-04T00:28:12.712Z,2.30
2019-03-04T00:30:40.087Z,2.60
2019-03-04T00:33:07.493Z,2.87
2019-03-04T00:35:34.968Z,1.70
2019-03-04T00:38:02.474Z,5.40
2019-03-04T00:40:29.871Z,2.15
2019-03-04T00:42:57.288Z,2.85
2019-03-04T00:45:24.794Z,3.67
2019-03-04T00:47:52.199Z,2.72
2019-03-04T00:50:19.667Z,2.85
2019-03-04T00:52:47.060Z,3.25
2019-03-04T00:55:14.462Z,4.22
2019-03-04T00:57:41.878Z,3.52
2019-03-04T01:00:09.382Z,5.70
2019-03-04T01:02:37.093Z,2.90
2019-03-04T01:05:04.549Z,2.62
2019-03-04T01:07:31.936Z,3.10
2019-03-04T01:09:59.669Z,2.00
2019-03-04T01:12:27.099Z,2.75
2019-03-04T01:14:54.482Z,1.90
2019-03-04T01:17:21.893Z,3.52
2019-03-04T01:19:49.272Z,4.35
2019-03-04T01:22:16.686Z,3.65
2019-03-04T01:24:44.180Z,4.33
2019-03-04T01:27:11.556Z,3.92
2019-03-04T01:29:38.950Z,1.87
2019-03-04T01:32:06.377Z,2.37
2019-03-04T01:34:33.761Z,1.77
2019-03-04T01:37:01.141Z,3.35
2019-03-04T01:39:28.595Z,1.90
2019-03-04T01:41:56.083Z,2.37
2019-03-04T01:44:23.455Z,4.37
2019-03-04T01:46:50.885Z,2.05
2019-03-04T01:49:18.277Z,1.70
2019-03-04T01:51:45.668Z,2.75
2019-03-04T01:54:13.060Z,1.90
2019-03-04T01:56:40.715Z,2.30
2019-03-04T01:59:08.146Z,2.77
2019-03-04T02:01:35.537Z,2.42
2019-03-04T02:04:02.933Z,1.98
2019-03-04T02:06:30.331Z,2.37
2019-03-04T02:08:57.726Z,4.42
2019-03-04T02:11:25.175Z,4.05
2019-03-04T02:13:52.581Z,5.37
2019-03-04T02:16:19.973Z,1.70
2019-03-04T02:18:47.343Z,1.70
2019-03-04T02:21:14.830Z,2.67
2019-03-04T02:23:42.232Z,3.98
2019-03-04T02:26:09.649Z,1.95
2019-03-04T02:28:37.066Z,2.30
2019-03-04T02:31:04.453Z,2.17
2019-03-04T02:33:31.917Z,2.95
2019-03-04T02:35:59.335Z,2.55
2019-03-04T02:38:26.735Z,1.85
2019-03-04T02:40:54.176Z,3.50
2019-03-04T02:43:21.588Z,2.20
2019-03-04T02:45:49.043Z,1.60
2019-03-04T02:48:16.431Z,1.90
2019-03-04T02:50:43.874Z,2.12
2019-03-04T02:53:11.340Z,3.00
2019-03-04T02:55:38.742Z,2.83
2019-03-04T02:58:06.188Z,1.77
2019-03-04T03:00:33.607Z,2.30
2019-03-04T03:03:01.014Z,1.92
2019-03-04T03:05:28.517Z,1.98
2019-03-04T03:07:55.915Z,2.60
2019-03-04T03:10:23.318Z,2.30
2019-03-04T03:12:50.890Z,2.75
2019-03-04T03:15:19.710Z,3.30
2019-03-04T03:17:47.134Z,1.35
2019-03-04T03:20:14.678Z,2.20
2019-03-04T03:22:42.148Z,1.70
2019-03-04T03:25:09.600Z,2.02
2019-03-04T03:27:37.032Z,1.87
2019-03-04T03:30:04.417Z,2.25
2019-03-04T03:32:31.917Z,2.05
2019-03-04T03:34:59.409Z,1.40
2019-03-04T03:37:26.862Z,2.17
2019-03-04T03:39:54.246Z,2.20
2019-03-04T03:42:21.658Z,1.87
2019-03-04T03:44:49.097Z,1.52
2019-03-04T03:47:16.558Z,1.62
2019-03-04T03:49:43.963Z,1.30
2019-03-04T03:52:11.332Z,1.62
2019-03-04T03:54:38.713Z,1.50
2019-03-04T03:57:06.125Z,1.75
2019-03-04T03:59:33.568Z,2.58
2019-03-04T04:02:01.011Z,2.08
2019-03-04T04:04:28.580Z,2.35
2019-03-04T04:06:55.981Z,3.22
2019-03-04T04:09:23.358Z,1.50
2019-03-04T04:11:50.802Z,1.95
2019-03-04T04:14:18.198Z,1.50
2019-03-04T04:16:45.669Z,1.50
2019-03-04T04:19:13.085Z,1.20
2019-03-04T04:21:40.541Z,1.57
2019-03-04T04:24:07.922Z,2.00
2019-03-04T04:26:35.341Z,1.60
2019-03-04T04:29:12.554Z,1.70
2019-03-04T04:31:40.067Z,2.00
2019-03-04T04:34:07.532Z,2.62
2019-03-04T04:36:34.936Z,2.90
2019-03-04T04:39:02.676Z,1.55
2019-03-04T04:41:30.118Z,1.47
2019-03-04T04:43:57.514Z,2.98
2019-03-04T04:46:24.971Z,2.83
2019-03-04T04:48:52.438Z,2.55
2019-03-04T04:51:19.834Z,1.47
2019-03-04T04:53:47.372Z,1.37
2019-03-04T04:56:14.775Z,3.27
2019-03-04T04:58:42.169Z,2.02
2019-03-04T05:01:09.599Z,2.00
2019-03-04T05:03:36.979Z,2.98
2019-03-04T05:06:04.372Z,4.58
2019-03-04T05:08:31.792Z,2.58
2019-03-04T05:10:59.198Z,3.22
2019-03-04T05:13:26.692Z,3.17
2019-03-04T05:15:54.096Z,1.82
2019-03-04T05:18:21.473Z,3.08
2019-03-04T05:20:48.843Z,4.50
2019-03-04T05:23:16.258Z,2.70
2019-03-04T05:25:43.639Z,3.47
2019-03-04T05:28:11.152Z,4.35
2019-03-04T05:30:38.574Z,3.75
2019-03-04T05:33:05.956Z,3.00
2019-03-04T05:35:33.372Z,3.15
2019-03-04T05:38:00.760Z,3.35
2019-03-04T05:40:28.225Z,5.35
2019-03-04T05:42:55.752Z,2.80
2019-03-04T05:45:23.140Z,2.15
2019-03-04T05:47:50.519Z,2.80
2019-03-04T05:50:17.923Z,5.67
2019-03-04T05:52:45.311Z,3.05
2019-03-04T05:55:12.695Z,5.72
2019-03-04T05:57:40.116Z,5.03
2019-03-04T06:00:07.612Z,5.62
2019-03-04T06:02:35.006Z,4.90
2019-03-04T06:05:02.419Z,6.00
2019-03-04T06:07:57.832Z,4.67
2019-03-04T06:10:25.252Z,8.85
2019-03-04T06:12:52.684Z,4.20
2019-03-04T06:15:20.062Z,5.03
2019-03-04T06:17:47.444Z,4.60
2019-03-04T06:20:14.916Z,5.25
2019-03-04T06:22:42.425Z,4.85
2019-03-04T06:25:09.808Z,6.83
2019-03-04T06:27:37.281Z,6.33
2019-03-04T06:30:04.751Z,9.15
2019-03-04T06:32:32.338Z,4.72
2019-03-04T06:34:59.742Z,6.60
2019-03-04T06:37:27.142Z,6.45
2019-03-04T06:39:54.591Z,5.05
2019-03-04T06:42:21.987Z,5.87
2019-03-04T06:44:49.388Z,4.25
2019-03-04T06:47:16.797Z,4.92
2019-03-04T06:49:44.253Z,7.53
2019-03-04T06:52:11.635Z,8.95
2019-03-04T06:54:39.039Z,5.87
2019-03-04T06:57:06.456Z,6.42
2019-03-04T06:59:33.894Z,6.58
2019-03-04T07:02:01.299Z,5.90
2019-03-04T07:04:29.076Z,6.00
2019-03-04T07:06:56.493Z,6.40
2019-03-04T07:09:23.864Z,11.73
2019-03-04T07:11:51.407Z,8.60
2019-03-04T07:14:18.820Z,9.20
2019-03-04T07:16:46.260Z,9.25
2019-03-04T07:19:13.681Z,11.97
2019-03-04T07:21:41.076Z,4.78
2019-03-04T07:24:08.509Z,6.25
2019-03-04T07:26:35.922Z,11.68
2019-03-04T07:29:03.455Z,10.38
2019-03-04T07:31:30.909Z,7.25
2019-03-04T07:33:58.319Z,16.90
2019-03-04T07:36:25.714Z,8.30
2019-03-04T07:38:53.273Z,5.85
2019-03-04T07:41:20.756Z,7.10
2019-03-04T07:43:48.150Z,10.78
2019-03-04T07:46:15.567Z,5.12
2019-03-04T07:48:42.957Z,6.00
2019-03-04T07:51:10.383Z,4.22
2019-03-04T07:53:45.989Z,2.55
2019-03-04T07:56:06.992Z,5.05
2019-03-04T07:58:34.400Z,5.30
2019-03-04T08:01:01.935Z,6.83
2019-03-04T08:03:29.390Z,4.15
2019-03-04T08:05:57.758Z,2.37
2019-03-04T08:08:25.383Z,4.40
2019-03-04T08:10:52.829Z,2.77
2019-03-04T08:13:20.302Z,4.92
2019-03-04T08:15:47.730Z,3.08
2019-03-04T08:18:15.115Z,2.30
2019-03-04T08:20:42.566Z,3.15
2019-03-04T08:23:10.223Z,11.60
2019-03-04T08:25:37.766Z,5.80
2019-03-04T08:28:05.230Z,3.25
2019-03-04T08:30:32.816Z,5.33
2019-03-04T08:33:00.194Z,4.87
2019-03-04T08:35:27.609Z,5.45
2019-03-04T08:37:55.008Z,4.90
2019-03-04T08:40:22.397Z,4.13
2019-03-04T08:42:49.769Z,2.87
2019-03-04T08:45:17.281Z,3.62
2019-03-04T08:47:44.797Z,4.80
2019-03-04T08:50:12.284Z,4.33
2019-03-04T08:52:39.756Z,3.62
2019-03-04T08:55:07.203Z,5.90
2019-03-04T08:57:34.646Z,3.75
2019-03-04T09:00:02.047Z,3.42
2019-03-04T09:02:29.543Z,3.40
2019-03-04T09:04:56.941Z,4.22
2019-03-04T09:07:24.336Z,1.98
2019-03-04T09:09:51.952Z,3.27
2019-03-04T09:12:19.559Z,4.58
2019-03-04T09:14:46.960Z,4.85
2019-03-04T09:17:14.376Z,3.62
2019-03-04T09:19:41.805Z,3.17
2019-03-04T09:22:09.232Z,6.17
2019-03-04T09:24:36.724Z,3.97
2019-03-04T09:27:04.249Z,3.83
2019-03-04T09:29:31.636Z,5.25
2019-03-04T09:31:59.071Z,4.22
2019-03-04T09:34:26.517Z,6.30
2019-03-04T09:36:53.916Z,5.42
2019-03-04T09:39:21.345Z,7.08
2019-03-04T09:41:50.024Z,3.08
2019-03-04T09:44:17.415Z,3.02
2019-03-04T09:46:44.841Z,4.58
2019-03-04T09:49:12.234Z,4.85
2019-03-04T09:51:39.731Z,3.30
2019-03-04T09:54:07.129Z,5.12
2019-03-04T09:56:34.523Z,5.28
2019-03-04T09:59:01.900Z,6.70
2019-03-04T10:01:29.560Z,4.40
2019-03-04T10:03:57.080Z,6.42
2019-03-04T10:06:24.473Z,4.92
2019-03-04T10:08:51.864Z,6.20
2019-03-04T10:11:19.249Z,4.67
2019-03-04T10:13:46.649Z,6.08
2019-03-04T10:16:18.673Z,6.12
2019-03-04T10:18:43.230Z,6.97
2019-03-04T10:21:10.619Z,5.85
2019-03-04T10:23:38.032Z,5.70
2019-03-04T10:26:05.435Z,5.30
2019-03-04T10:28:33.035Z,8.13
2019-03-04T10:31:00.545Z,5.90
2019-03-04T10:33:27.938Z,5.15
2019-03-04T10:35:55.336Z,5.22
2019-03-04T10:38:23.069Z,7.47
2019-03-04T10:40:50.554Z,10.15
2019-03-04T10:43:17.961Z,7.45
2019-03-04T10:45:45.613Z,5.70
2019-03-04T10:48:13.031Z,7.55
2019-03-04T10:50:40.413Z,10.50
2019-03-04T10:53:07.814Z,8.50
2019-03-04T10:55:41.995Z,7.05
2019-03-04T10:58:04.336Z,6.43
2019-03-04T11:00:31.739Z,9.70
2019-03-04T11:02:59.366Z,8.43
2019-03-04T11:05:26.758Z,6.37
2019-03-04T11:07:54.151Z,9.68
2019-03-04T11:10:21.583Z,8.30
2019-03-04T11:12:49.009Z,8.00
2019-03-04T11:15:16.403Z,4.83
2019-03-04T11:17:43.938Z,9.08
2019-03-04T11:20:11.344Z,9.18
2019-03-04T11:22:38.731Z,9.03
2019-03-04T11:25:06.207Z,7.67
2019-03-04T11:27:33.599Z,10.63
2019-03-04T11:30:01.022Z,7.35
2019-03-04T11:32:28.592Z,11.57
2019-03-04T11:34:56.000Z,10.75
2019-03-04T11:37:23.375Z,10.82
2019-03-04T11:40:15.896Z,9.10
2019-03-04T11:42:43.291Z,7.95
2019-03-04T11:45:10.682Z,10.45
2019-03-04T11:47:38.179Z,10.93
2019-03-04T11:50:05.600Z,7.62
2019-03-04T11:52:32.995Z,6.97
2019-03-04T11:55:00.543Z,8.15
2019-03-04T11:57:28.017Z,11.55
2019-03-04T11:59:55.407Z,8.60
2019-03-04T12:02:25.030Z,8.65
2019-03-04T12:04:52.527Z,7.65
2019-03-04T12:07:19.914Z,7.95
2019-03-04T12:09:47.332Z,7.58
2019-03-04T12:12:14.729Z,9.40
2019-03-04T12:14:43.021Z,8.83
2019-03-04T12:17:10.441Z,7.75
2019-03-04T12:19:37.894Z,7.03
2019-03-04T12:22:05.345Z,7.90
2019-03-04T12:24:32.778Z,9.10
2019-03-04T12:27:00.195Z,10.50
2019-03-04T12:29:27.604Z,9.98
2019-03-04T12:32:07.966Z,7.83
2019-03-04T12:34:35.532Z,7.70
2019-03-04T12:37:02.951Z,9.35
2019-03-04T12:39:30.464Z,9.43
2019-03-04T12:41:57.880Z,8.28
2019-03-04T12:44:25.396Z,7.92
2019-03-04T12:46:53.403Z,7.80
2019-03-04T12:49:20.840Z,7.37
2019-03-04T12:51:48.251Z,4.62
2019-03-04T12:54:15.686Z,7.40
2019-03-04T12:56:43.114Z,7.58
2019-03-04T12:59:10.767Z,7.67
2019-03-04T13:01:38.188Z,5.45
2019-03-04T13:04:05.655Z,5.30
2019-03-04T13:06:33.244Z,7.10
2019-03-04T13:09:00.688Z,4.20
2019-03-04T13:11:28.196Z,4.30
2019-03-04T13:13:56.374Z,7.70
2019-03-04T13:16:23.860Z,4.95
2019-03-04T13:18:51.423Z,7.17
2019-03-04T13:21:18.826Z,7.50
2019-03-04T13:23:46.823Z,4.78
2019-03-04T13:26:14.214Z,6.85
2019-03-04T13:28:41.667Z,7.20
2019-03-04T13:31:11.821Z,6.23
2019-03-04T13:33:39.226Z,6.12
2019-03-04T13:36:07.930Z,7.17
2019-03-04T13:38:35.381Z,8.43
2019-03-04T13:41:02.999Z,7.00
2019-03-04T13:43:30.677Z,5.50
2019-03-04T13:45:58.095Z,7.53
2019-03-04T13:48:25.587Z,6.70
2019-03-04T13:50:53.035Z,5.60
2019-03-04T13:53:20.473Z,7.33
2019-03-04T13:55:47.955Z,5.47
2019-03-04T13:58:15.344Z,7.53
2019-03-04T14:00:42.791Z,7.17
2019-03-04T14:03:10.327Z,8.73
2019-03-04T14:05:37.820Z,6.67
2019-03-04T14:08:05.264Z,7.53
2019-03-04T14:10:32.660Z,4.05
2019-03-04T14:13:00.123Z,7.87
2019-03-04T14:15:27.939Z,7.60
2019-03-04T14:17:55.427Z,4.83
2019-03-04T14:20:22.808Z,5.40
2019-03-04T14:22:57.236Z,6.50
2019-03-04T14:25:19.361Z,6.92
2019-03-04T14:27:46.778Z,7.53
2019-03-04T14:30:14.228Z,5.22
2019-03-04T14:32:41.967Z,3.72
2019-03-04T14:35:10.129Z,5.22
2019-03-04T14:37:37.555Z,8.80
2019-03-04T14:40:05.053Z,5.57
2019-03-04T14:42:32.469Z,4.75
2019-03-04T14:44:59.931Z,6.55
2019-03-04T14:47:28.534Z,7.20
2019-03-04T14:50:06.778Z,6.83
2019-03-04T14:52:25.704Z,6.58
2019-03-04T14:54:53.155Z,9.63
2019-03-04T14:57:20.633Z,8.73
2019-03-04T14:59:48.072Z,5.72
2019-03-04T15:02:16.185Z,6.50
2019-03-04T15:04:44.648Z,6.62
2019-03-04T15:07:12.244Z,6.60
2019-03-04T15:09:48.943Z,5.40
2019-03-04T15:12:09.448Z,7.12
2019-03-04T15:14:37.668Z,5.47
2019-03-04T15:17:05.778Z,7.90
2019-03-04T15:19:36.329Z,7.15
2019-03-04T15:22:06.466Z,6.65
2019-03-04T15:24:36.552Z,5.12
2019-03-04T15:27:04.996Z,7.40
2019-03-04T15:29:32.588Z,8.53
2019-03-04T15:32:00.114Z,9.00
2019-03-04T15:34:27.584Z,8.03
2019-03-04T15:36:55.064Z,6.53
2019-03-04T15:39:23.379Z,8.67
2019-03-04T15:41:50.906Z,6.40
2019-03-04T15:44:18.324Z,6.75
2019-03-04T15:46:45.710Z,5.15
2019-03-04T15:49:13.115Z,4.53
2019-03-04T15:51:40.889Z,6.70
2019-03-04T15:54:08.312Z,7.08
2019-03-04T15:56:35.721Z,7.92
2019-03-04T15:59:03.140Z,8.28
2019-03-04T16:01:30.540Z,7.60
2019-03-04T16:03:57.971Z,8.68
2019-03-04T16:06:25.386Z,6.95
2019-03-04T16:08:52.799Z,9.30
2019-03-04T16:11:20.411Z,7.53
2019-03-04T16:13:53.301Z,6.28
2019-03-04T16:16:17.048Z,5.85
2019-03-04T16:18:44.447Z,5.70
2019-03-04T16:21:11.875Z,5.67
2019-03-04T16:23:39.365Z,7.35
2019-03-04T16:26:06.792Z,6.78
2019-03-04T16:28:34.213Z,9.63
2019-03-04T16:31:01.671Z,10.20
2019-03-04T16:33:29.143Z,9.68
2019-03-04T16:35:56.633Z,7.15
2019-03-04T16:38:24.020Z,7.83
2019-03-04T16:40:52.357Z,5.42
2019-03-04T16:43:19.803Z,12.25
2019-03-04T16:45:47.196Z,10.75
2019-03-04T16:48:14.726Z,8.58
2019-03-04T16:50:42.118Z,11.70
2019-03-04T16:53:09.523Z,14.33
2019-03-04T16:55:36.978Z,8.95
2019-03-04T16:58:04.376Z,11.68
2019-03-04T17:00:31.836Z,9.50
2019-03-04T17:03:02.347Z,11.70
2019-03-04T17:05:30.050Z,9.85
2019-03-04T17:07:57.428Z,13.72
2019-03-04T17:10:24.940Z,10.03
2019-03-04T17:12:54.434Z,10.10
2019-03-04T17:15:21.626Z,13.38
2019-03-04T17:17:49.784Z,8.30
2019-03-04T17:20:17.183Z,10.70
2019-03-04T17:22:44.588Z,10.63
2019-03-04T17:25:12.011Z,10.37
2019-03-04T17:27:41.431Z,14.45
2019-03-04T17:30:08.628Z,9.53
2019-03-04T17:32:36.057Z,10.73
2019-03-04T17:35:03.572Z,9.70
2019-03-04T17:37:31.045Z,10.80
2019-03-04T17:39:58.448Z,10.70
2019-03-04T17:42:25.910Z,10.72
2019-03-04T17:44:53.315Z,15.63
2019-03-04T17:47:20.736Z,14.35
2019-03-04T17:49:48.179Z,11.10
2019-03-04T17:52:15.572Z,9.23
2019-03-04T17:54:43.002Z,9.50
2019-03-04T17:57:10.410Z,14.60
2019-03-04T17:59:37.893Z,12.03
2019-03-04T18:02:08.368Z,9.35
2019-03-04T18:04:35.762Z,10.28
2019-03-04T18:07:03.172Z,10.00
2019-03-04T18:09:30.599Z,13.60
2019-03-04T18:11:57.984Z,11.57
2019-03-04T18:14:25.384Z,13.73
2019-03-04T18:16:52.838Z,9.77
2019-03-04T18:19:20.558Z,11.68
2019-03-04T18:21:47.944Z,12.90
2019-03-04T18:24:15.382Z,11.12
2019-03-04T18:26:42.891Z,9.55
2019-03-04T18:29:10.411Z,11.07
2019-03-04T18:31:37.812Z,7.85
2019-03-04T18:34:05.208Z,9.07
2019-03-04T18:36:32.595Z,8.00
2019-03-04T18:38:59.977Z,11.60
2019-03-04T18:41:27.393Z,9.20
2019-03-04T18:43:54.815Z,9.53
2019-03-04T18:46:22.347Z,9.20
2019-03-04T18:48:49.917Z,10.47
2019-03-04T18:51:17.322Z,10.37
2019-03-04T18:53:44.724Z,10.67
2019-03-04T18:56:21.498Z,10.27
2019-03-04T18:58:41.447Z,10.47
2019-03-04T19:01:08.849Z,9.73
2019-03-04T19:03:36.268Z,9.37
2019-03-04T19:06:03.734Z,10.13
2019-03-04T19:08:31.207Z,10.10
2019-03-04T19:10:58.608Z,7.10
2019-03-04T19:13:26.074Z,7.40
2019-03-04T19:15:53.478Z,9.10
2019-03-04T19:18:20.957Z,9.15
2019-03-04T19:20:48.364Z,7.73
2019-03-04T19:23:15.833Z,6.83
2019-03-04T19:25:43.250Z,8.15
2019-03-04T19:28:10.668Z,6.73
2019-03-04T19:30:38.098Z,5.23
2019-03-04T19:33:05.637Z,8.10
2019-03-04T19:35:33.048Z,7.83
2019-03-04T19:38:00.466Z,7.97
2019-03-04T19:40:27.965Z,7.23
2019-03-04T19:42:55.348Z,8.17
2019-03-04T19:45:22.795Z,8.53
2019-03-04T19:47:50.233Z,6.60
2019-03-04T19:50:17.649Z,8.07
2019-03-04T19:52:45.090Z,7.23
2019-03-04T19:55:12.783Z,5.87
2019-03-04T19:57:40.363Z,7.50
2019-03-04T20:00:07.797Z,6.83
2019-03-04T20:02:35.445Z,4.25
2019-03-04T20:05:02.882Z,5.40
2019-03-04T20:07:30.334Z,7.27
2019-03-04T20:09:57.795Z,7.92
2019-03-04T20:12:25.224Z,4.47
2019-03-04T20:14:52.652Z,6.63
2019-03-04T20:17:20.034Z,4.10
2019-03-04T20:19:47.429Z,9.07
2019-03-04T20:22:15.068Z,6.43
2019-03-04T20:24:42.591Z,7.43
2019-03-04T20:27:10.100Z,4.17
2019-03-04T20:29:37.525Z,5.25
2019-03-04T20:32:04.976Z,9.07
2019-03-04T20:34:32.517Z,8.60
2019-03-04T20:36:59.978Z,5.92
2019-03-04T20:39:27.378Z,5.15
2019-03-04T20:41:54.788Z,6.05
2019-03-04T20:44:22.178Z,7.70
2019-03-04T20:46:49.584Z,6.97
2019-03-04T20:49:17.027Z,9.03
2019-03-04T20:51:44.426Z,6.42
2019-03-04T20:54:11.942Z,7.78
2019-03-04T20:56:39.367Z,6.00
2019-03-04T20:59:06.780Z,6.65
2019-03-04T21:01:34.182Z,6.73
2019-03-04T21:04:01.597Z,4.67
2019-03-04T21:06:29.002Z,5.23
2019-03-04T21:08:56.393Z,8.18
2019-03-04T21:11:23.896Z,8.95
2019-03-04T21:13:51.288Z,8.50
2019-03-04T21:16:18.696Z,7.85
2019-03-04T21:19:05.129Z,6.20
2019-03-04T21:21:32.572Z,5.40
2019-03-04T21:23:59.967Z,7.28
2019-03-04T21:26:27.392Z,7.33
2019-03-04T21:28:54.812Z,6.60
2019-03-04T21:31:22.211Z,8.10
2019-03-04T21:33:49.812Z,6.43
2019-03-04T21:36:17.241Z,6.37
2019-03-04T21:38:44.740Z,7.05
2019-03-04T21:41:12.193Z,6.12
2019-03-04T21:43:39.652Z,8.43
2019-03-04T21:46:07.147Z,8.78
2019-03-04T21:48:34.577Z,7.90
2019-03-04T21:51:02.047Z,6.30
2019-03-04T21:53:29.512Z,13.50
2019-03-04T21:55:56.971Z,12.53
2019-03-04T21:58:24.369Z,7.22
2019-03-04T22:00:51.774Z,10.78
2019-03-04T22:03:19.261Z,11.22
2019-03-04T22:05:50.611Z,8.78
2019-03-04T22:08:16.402Z,9.27
2019-03-04T22:10:43.907Z,9.55
2019-03-04T22:13:11.325Z,11.65
2019-03-04T22:15:38.828Z,10.05
2019-03-04T22:18:06.271Z,10.57
2019-03-04T22:20:33.730Z,9.87
2019-03-04T22:23:01.203Z,8.17
2019-03-04T22:25:28.680Z,12.13
2019-03-04T22:27:56.168Z,9.27
2019-03-04T22:30:23.587Z,8.50
2019-03-04T22:32:51.083Z,8.60
2019-03-04T22:35:18.607Z,8.97
2019-03-04T22:37:46.063Z,9.78
2019-03-04T22:40:13.539Z,8.27
2019-03-04T22:42:40.980Z,9.60
2019-03-04T22:45:08.528Z,7.90
2019-03-04T22:47:36.170Z,8.83
2019-03-04T22:50:03.587Z,12.53
2019-03-04T22:52:31.215Z,11.33
2019-03-04T22:54:58.928Z,8.88
2019-03-04T22:57:26.340Z,11.80
2019-03-04T22:59:53.827Z,10.48
2019-03-04T23:02:21.289Z,8.08
2019-03-04T23:04:48.761Z,11.20
2019-03-04T23:07:16.170Z,6.70
2019-03-04T23:09:44.185Z,10.85
2019-03-04T23:12:11.628Z,9.27
2019-03-04T23:14:39.051Z,7.40
2019-03-04T23:17:06.498Z,10.03
2019-03-04T23:19:34.015Z,11.03
2019-03-04T23:22:01.437Z,5.53
2019-03-04T23:24:28.842Z,8.98
2019-03-04T23:26:56.247Z,10.80
2019-03-04T23:29:23.624Z,11.00
2019-03-04T23:31:51.040Z,9.47
2019-03-04T23:34:18.463Z,9.33
2019-03-04T23:36:45.900Z,12.30
2019-03-04T23:39:13.298Z,9.98
2019-03-04T23:41:40.806Z,9.20
2019-03-04T23:44:08.207Z,10.80
2019-03-04T23:46:35.605Z,8.47
2019-03-04T23:49:03.032Z,8.33
2019-03-04T23:51:30.788Z,8.98
2019-03-04T23:53:58.182Z,7.00
2019-03-04T23:56:25.741Z,9.40
2019-03-04T23:58:53.205Z,7.90
